Time;durP1;ratioP1;P1;durP2;ratioP2;P2;SDS_P1;SDS_P2;PMS_P1;PMS_P2;Temp;Humidity;BMP_temperature;BMP_pressure;BME280_temperature;BME280_humidity;BME280_pressure;Samples;Min_cycle;Max_cycle;Signal;HPM_P1;HPM_P2
2021/08/29 00:02:07;;;;;;;3.60;3.30;;;16.90;88.00;;;;;;5058044;28;20955;-48
2021/08/29 00:04:34;;;;;;;3.70;3.40;;;16.90;88.10;;;;;;5063809;28;20616;-48
2021/08/29 00:07:01;;;;;;;4.40;3.90;;;16.90;88.20;;;;;;5041916;28;20508;-48
2021/08/29 00:09:28;;;;;;;3.83;2.70;;;16.90;88.40;;;;;;5067918;28;20944;-49
2021/08/29 00:11:55;;;;;;;5.57;3.60;;;16.90;88.40;;;;;;5062038;28;20458;-49
2021/08/29 00:14:22;;;;;;;5.00;3.50;;;16.90;88.50;;;;;;5064356;28;20457;-48
2021/08/29 00:16:52;;;;;;;3.80;3.40;;;16.90;88.60;;;;;;5065422;28;20905;-48
2021/08/29 00:19:19;;;;;;;4.40;2.90;;;16.90;88.40;;;;;;5036573;28;20454;-49
2021/08/29 00:21:46;;;;;;;4.03;3.63;;;16.90;88.50;;;;;;5065015;28;20481;-49
2021/08/29 00:24:12;;;;;;;5.80;3.00;;;16.90;88.50;;;;;;5062320;28;20465;-49
2021/08/29 00:26:39;;;;;;;2.50;2.30;;;16.90;88.10;;;;;;5066997;28;21032;-49
2021/08/29 00:29:06;;;;;;;4.20;2.60;;;16.90;88.00;;;;;;5069579;28;20457;-49
2021/08/29 00:31:33;;;;;;;2.63;2.43;;;16.90;87.90;;;;;;5058344;28;20472;-49
2021/08/29 00:33:59;;;;;;;3.50;2.90;;;16.90;88.10;;;;;;5065553;28;20457;-49
2021/08/29 00:36:26;;;;;;;2.17;1.97;;;16.90;88.00;;;;;;5052998;28;20462;-49
2021/08/29 00:38:53;;;;;;;2.67;2.33;;;16.80;88.20;;;;;;5067803;28;20462;-48
2021/08/29 00:41:20;;;;;;;2.87;2.13;;;16.80;88.20;;;;;;5045914;28;20486;-48
2021/08/29 00:43:47;;;;;;;5.00;3.33;;;16.80;88.20;;;;;;5067850;28;20504;-48
2021/08/29 00:46:14;;;;;;;2.60;2.40;;;16.80;88.40;;;;;;5065162;28;20454;-48
2021/08/29 00:48:49;;;;;;;1.97;1.87;;;16.80;88.50;;;;;;5056621;28;20535;-49
2021/08/29 00:51:16;;;;;;;3.77;2.00;;;16.80;88.50;;;;;;5053241;28;20452;-48
2021/08/29 00:53:46;;;;;;;1.97;1.53;;;16.80;88.60;;;;;;5066024;28;20465;-48
2021/08/29 00:56:12;;;;;;;2.33;1.60;;;16.80;88.50;;;;;;5063775;28;20446;-48
2021/08/29 00:58:42;;;;;;;1.67;1.57;;;16.80;88.50;;;;;;5065420;28;20491;-48
2021/08/29 01:01:16;;;;;;;1.60;1.50;;;16.80;88.60;;;;;;5037045;28;20469;-48
2021/08/29 01:03:46;;;;;;;2.80;1.47;;;16.80;88.50;;;;;;5055703;28;20454;-48
2021/08/29 01:06:44;;;;;;;1.83;1.53;;;16.80;88.40;;;;;;5048163;28;20537;-48
2021/08/29 01:09:13;;;;;;;1.60;1.20;;;16.80;88.50;;;;;;5056422;28;20478;-48
2021/08/29 01:11:45;;;;;;;1.00;0.90;;;16.70;88.50;;;;;;5067685;28;20952;-48
2021/08/29 01:14:15;;;;;;;1.17;1.07;;;16.70;88.60;;;;;;5055139;28;20553;-49
2021/08/29 01:16:49;;;;;;;1.17;1.07;;;16.70;88.70;;;;;;5050976;28;20505;-48
2021/08/29 01:19:17;;;;;;;0.67;0.67;;;16.70;88.80;;;;;;5033123;28;20463;-49
2021/08/29 01:21:47;;;;;;;2.67;1.30;;;16.70;88.80;;;;;;5066973;28;20500;-48
2021/08/29 01:24:21;;;;;;;1.00;0.77;;;16.70;88.80;;;;;;5081852;28;20466;-48
2021/08/29 01:27:07;;;;;;;1.33;0.87;;;16.70;88.80;;;;;;5062189;28;21073;-49
2021/08/29 01:29:35;;;;;;;2.30;1.13;;;16.60;88.90;;;;;;5065545;28;20466;-48
2021/08/29 01:32:05;;;;;;;0.77;0.77;;;16.60;89.00;;;;;;5056441;28;20458;-48
2021/08/29 01:34:33;;;;;;;0.90;0.80;;;16.60;89.00;;;;;;5055179;28;21009;-48
2021/08/29 01:37:00;;;;;;;0.80;0.70;;;16.60;89.20;;;;;;5066644;28;20449;-49
2021/08/29 01:39:27;;;;;;;1.27;0.90;;;16.60;89.20;;;;;;5078465;28;20450;-49
2021/08/29 01:41:54;;;;;;;1.13;1.03;;;16.60;89.30;;;;;;5048392;28;20534;-48
2021/08/29 01:44:22;;;;;;;3.27;1.53;;;16.60;89.30;;;;;;5064211;28;20450;-48
2021/08/29 01:46:51;;;;;;;1.50;1.40;;;16.60;89.40;;;;;;5054590;28;20446;-48
2021/08/29 01:49:22;;;;;;;1.10;1.00;;;16.60;89.40;;;;;;5064201;28;20491;-48
2021/08/29 01:51:49;;;;;;;1.77;1.67;;;16.60;89.40;;;;;;5058889;28;20476;-48
2021/08/29 01:54:18;;;;;;;1.60;1.50;;;16.60;89.40;;;;;;5065332;28;20457;-48
2021/08/29 01:57:14;;;;;;;1.33;1.23;;;16.60;89.40;;;;;;5064845;28;20827;-49
2021/08/29 01:59:45;;;;;;;3.50;2.00;;;16.60;89.40;;;;;;5064989;28;20487;-49
2021/08/29 02:02:14;;;;;;;2.10;1.90;;;16.60;89.30;;;;;;5062447;28;20457;-48
2021/08/29 02:04:43;;;;;;;4.43;2.30;;;16.60;89.30;;;;;;5063071;28;20857;-49
2021/08/29 02:07:19;;;;;;;2.80;2.10;;;16.70;88.70;;;;;;5063858;28;20805;-49
2021/08/29 02:09:51;;;;;;;2.00;1.83;;;16.70;88.40;;;;;;5063988;28;20449;-48
2021/08/29 02:12:19;;;;;;;3.63;2.40;;;16.60;88.40;;;;;;5064594;28;20542;-49
2021/08/29 02:15:20;;;;;;;4.03;2.33;;;16.60;88.30;;;;;;5062924;28;20855;-49
2021/08/29 02:17:49;;;;;;;1.77;1.67;;;16.60;88.20;;;;;;5050605;28;20445;-48
2021/08/29 02:20:20;;;;;;;2.10;2.00;;;16.60;88.20;;;;;;5057703;28;20454;-49
2021/08/29 02:22:47;;;;;;;2.40;2.20;;;16.60;88.20;;;;;;5040548;28;20469;-49
2021/08/29 02:25:14;;;;;;;2.10;2.00;;;16.50;88.40;;;;;;5053555;28;20649;-49
2021/08/29 02:27:41;;;;;;;2.00;1.90;;;16.50;88.50;;;;;;5060256;28;20478;-49
2021/08/29 02:30:09;;;;;;;1.90;1.70;;;16.60;88.30;;;;;;5057043;28;20451;-49
2021/08/29 02:32:40;;;;;;;2.83;2.27;;;16.60;87.60;;;;;;5065876;28;20989;-48
2021/08/29 02:35:08;;;;;;;2.40;2.20;;;16.60;87.70;;;;;;5060277;28;20458;-48
2021/08/29 02:37:37;;;;;;;1.80;1.50;;;16.50;87.90;;;;;;5046608;28;20476;-48
2021/08/29 02:40:06;;;;;;;2.20;2.03;;;16.60;87.60;;;;;;5053531;28;20459;-48
2021/08/29 02:42:34;;;;;;;3.07;2.00;;;16.50;87.70;;;;;;5044745;28;20459;-48
2021/08/29 02:45:04;;;;;;;3.93;2.03;;;16.60;87.60;;;;;;5064556;28;20461;-48
2021/08/29 02:47:31;;;;;;;2.17;1.97;;;16.50;87.90;;;;;;5065289;28;20484;-48
2021/08/29 02:49:58;;;;;;;2.30;1.97;;;16.50;87.80;;;;;;5046136;28;20951;-48
2021/08/29 02:52:25;;;;;;;2.77;2.47;;;16.50;88.10;;;;;;5064992;28;20830;-49
2021/08/29 02:54:53;;;;;;;3.17;2.03;;;16.50;88.40;;;;;;5045695;28;20461;-48
2021/08/29 02:57:21;;;;;;;2.00;1.90;;;16.50;87.90;;;;;;5067094;28;20910;-48
2021/08/29 02:59:48;;;;;;;2.77;2.40;;;16.50;88.00;;;;;;5049595;28;20458;-48
2021/08/29 03:02:15;;;;;;;3.47;2.07;;;16.40;88.20;;;;;;5056836;28;20457;-48
2021/08/29 03:04:42;;;;;;;2.33;2.20;;;16.40;88.30;;;;;;5064023;28;20544;-48
2021/08/29 03:07:09;;;;;;;2.37;2.17;;;16.40;88.50;;;;;;5061320;28;20477;-48
2021/08/29 03:09:36;;;;;;;2.50;1.80;;;16.40;88.60;;;;;;5055907;28;20486;-48
2021/08/29 03:12:08;;;;;;;1.70;1.60;;;16.50;88.40;;;;;;5046823;28;20450;-48
2021/08/29 03:14:39;;;;;;;2.17;1.97;;;16.50;87.70;;;;;;5062541;28;20463;-48
2021/08/29 03:17:07;;;;;;;3.17;1.87;;;16.40;87.80;;;;;;5062744;28;20449;-48
2021/08/29 03:19:34;;;;;;;2.40;1.80;;;16.40;87.90;;;;;;5045608;28;20816;-48
2021/08/29 03:22:03;;;;;;;1.97;1.80;;;16.40;87.90;;;;;;5062853;28;20482;-48
2021/08/29 03:24:31;;;;;;;2.63;2.13;;;16.40;87.70;;;;;;5071776;28;20468;-48
2021/08/29 03:26:58;;;;;;;2.07;1.90;;;16.40;87.90;;;;;;5052822;28;20462;-48
2021/08/29 03:29:24;;;;;;;2.90;2.37;;;16.40;88.10;;;;;;5081016;28;20482;-48
2021/08/29 03:31:51;;;;;;;2.60;1.73;;;16.40;88.30;;;;;;5060750;28;20471;-48
2021/08/29 03:34:19;;;;;;;4.10;1.97;;;16.40;88.30;;;;;;5068098;28;20463;-48
2021/08/29 03:36:46;;;;;;;3.27;2.20;;;16.40;88.20;;;;;;5061507;28;20940;-48
2021/08/29 03:39:16;;;;;;;1.83;1.60;;;16.40;88.30;;;;;;5047652;28;20464;-48
2021/08/29 03:41:44;;;;;;;2.10;1.93;;;16.40;87.60;;;;;;5050424;28;20549;-48
2021/08/29 03:44:14;;;;;;;1.93;1.80;;;16.40;87.80;;;;;;5059393;28;20469;-48
2021/08/29 03:46:41;;;;;;;2.13;1.93;;;16.40;87.60;;;;;;5064026;28;20458;-48
2021/08/29 03:49:09;;;;;;;2.00;1.90;;;16.30;87.90;;;;;;5063548;28;20561;-48
2021/08/29 03:51:37;;;;;;;2.80;2.07;;;16.30;88.00;;;;;;5060600;28;20458;-48
2021/08/29 03:54:07;;;;;;;3.10;2.00;;;16.30;88.00;;;;;;5056238;28;20508;-48
2021/08/29 03:56:35;;;;;;;2.20;1.90;;;16.30;88.30;;;;;;5030209;28;20458;-48
2021/08/29 03:59:07;;;;;;;2.60;2.40;;;16.30;88.20;;;;;;5060628;28;20968;-48
2021/08/29 04:01:34;;;;;;;2.77;2.57;;;16.30;88.00;;;;;;5064218;28;20458;-48
2021/08/29 04:04:01;;;;;;;3.63;2.73;;;16.30;87.90;;;;;;5064400;28;20485;-48
2021/08/29 04:06:32;;;;;;;3.67;3.03;;;16.30;88.10;;;;;;5038506;28;20463;-48
2021/08/29 04:09:05;;;;;;;5.47;3.03;;;16.30;87.80;;;;;;5051405;28;20482;-49
2021/08/29 04:11:33;;;;;;;5.13;3.20;;;16.30;87.80;;;;;;5060117;28;20496;-48
2021/08/29 04:14:00;;;;;;;4.50;3.57;;;16.30;87.50;;;;;;5055917;28;20453;-48
2021/08/29 04:16:28;;;;;;;5.37;4.87;;;16.30;87.20;;;;;;5060657;28;20460;-48
2021/08/29 04:18:58;;;;;;;3.93;3.60;;;16.30;87.40;;;;;;5041107;28;20458;-48
2021/08/29 04:21:28;;;;;;;4.57;3.13;;;16.20;87.80;;;;;;5054570;28;20484;-48
2021/08/29 04:23:55;;;;;;;6.10;4.73;;;16.20;87.60;;;;;;5078131;28;20446;-48
2021/08/29 04:26:22;;;;;;;3.93;3.27;;;16.20;87.80;;;;;;5064720;28;20473;-48
2021/08/29 04:28:50;;;;;;;4.80;3.57;;;16.20;87.90;;;;;;5059004;28;21016;-49
2021/08/29 04:31:23;;;;;;;7.47;4.07;;;16.20;87.80;;;;;;5062101;28;20815;-48
2021/08/29 04:33:52;;;;;;;3.93;3.53;;;16.20;87.80;;;;;;5058825;28;20490;-48
2021/08/29 04:36:19;;;;;;;4.93;4.23;;;16.20;87.60;;;;;;5066740;28;20449;-48
2021/08/29 04:38:45;;;;;;;5.77;4.33;;;16.10;87.80;;;;;;5052966;28;20459;-48
2021/08/29 04:41:12;;;;;;;5.43;3.90;;;16.10;88.00;;;;;;5060579;28;20464;-48
2021/08/29 04:43:39;;;;;;;5.37;4.07;;;16.10;88.10;;;;;;5047207;28;20961;-48
2021/08/29 04:46:06;;;;;;;4.30;3.37;;;16.10;88.30;;;;;;5059827;28;20866;-48
2021/08/29 04:48:33;;;;;;;5.00;4.20;;;16.10;88.00;;;;;;5035358;28;20513;-48
2021/08/29 04:50:59;;;;;;;4.73;3.70;;;16.20;87.60;;;;;;5051003;28;20454;-48
2021/08/29 04:53:26;;;;;;;4.00;3.33;;;16.20;87.50;;;;;;5063574;28;20944;-49
2021/08/29 04:55:53;;;;;;;5.13;3.77;;;16.20;87.60;;;;;;5056186;28;20468;-49
2021/08/29 04:58:20;;;;;;;5.37;4.20;;;16.10;87.80;;;;;;5064917;28;20465;-48
2021/08/29 05:00:46;;;;;;;4.10;3.70;;;16.10;88.00;;;;;;5048181;28;20453;-48
2021/08/29 05:03:16;;;;;;;4.57;3.50;;;16.10;88.30;;;;;;5065762;28;20489;-48
2021/08/29 05:05:43;;;;;;;3.83;3.27;;;16.10;88.20;;;;;;5061954;28;20457;-48
2021/08/29 05:08:10;;;;;;;6.03;3.50;;;16.10;88.30;;;;;;5065022;28;20469;-48
2021/08/29 05:10:37;;;;;;;3.40;3.10;;;16.10;88.30;;;;;;5050488;28;20457;-48
2021/08/29 05:13:04;;;;;;;4.40;3.50;;;16.10;88.00;;;;;;5054238;28;20467;-48
2021/08/29 05:15:30;;;;;;;5.17;3.53;;;16.10;88.10;;;;;;5058574;28;20464;-49
2021/08/29 05:17:58;;;;;;;5.40;3.13;;;16.10;88.10;;;;;;5080723;28;20453;-48
2021/08/29 05:20:25;;;;;;;4.33;3.70;;;16.20;87.50;;;;;;5056810;28;20488;-49
2021/08/29 05:22:52;;;;;;;3.33;3.07;;;16.20;87.40;;;;;;5058753;28;20497;-48
2021/08/29 05:25:18;;;;;;;3.70;2.87;;;16.20;87.30;;;;;;5064169;28;20454;-48
2021/08/29 05:27:45;;;;;;;4.07;2.93;;;16.20;87.60;;;;;;5059244;28;20705;-48
2021/08/29 05:30:14;;;;;;;3.90;2.73;;;16.20;87.40;;;;;;5051877;28;20530;-48
2021/08/29 05:32:41;;;;;;;3.97;3.03;;;16.20;87.60;;;;;;5067117;28;20460;-48
2021/08/29 05:35:08;;;;;;;3.53;3.20;;;16.10;87.80;;;;;;5078264;28;20455;-48
2021/08/29 05:37:35;;;;;;;7.83;3.20;;;16.10;88.00;;;;;;5086659;28;20470;-48
2021/08/29 05:40:02;;;;;;;3.17;2.87;;;16.10;87.80;;;;;;5064064;28;20462;-48
2021/08/29 05:42:29;;;;;;;4.00;3.13;;;16.10;88.00;;;;;;5065210;28;20472;-48
2021/08/29 05:44:55;;;;;;;4.47;2.80;;;16.10;87.90;;;;;;5064895;28;20826;-48
2021/08/29 05:47:23;;;;;;;3.17;2.87;;;16.10;87.80;;;;;;5047974;28;20969;-48
2021/08/29 05:49:49;;;;;;;3.30;3.00;;;16.10;87.80;;;;;;5053609;28;20527;-48
2021/08/29 05:52:16;;;;;;;4.90;3.20;;;16.10;87.90;;;;;;5067461;28;20503;-48
2021/08/29 05:54:43;;;;;;;4.10;3.40;;;16.10;87.60;;;;;;5077264;28;20462;-48
2021/08/29 05:57:09;;;;;;;3.73;3.43;;;16.10;87.40;;;;;;5064718;28;20817;-48
2021/08/29 05:59:36;;;;;;;5.40;3.23;;;16.10;87.50;;;;;;5060115;28;20468;-48
2021/08/29 06:02:03;;;;;;;4.10;3.70;;;16.10;87.80;;;;;;5063941;28;20454;-48
2021/08/29 06:04:30;;;;;;;4.17;3.77;;;16.10;88.20;;;;;;5042451;28;20534;-48
2021/08/29 06:06:57;;;;;;;3.97;3.40;;;16.10;88.00;;;;;;5065273;28;20495;-49
2021/08/29 06:09:24;;;;;;;7.33;4.20;;;16.10;88.20;;;;;;5062859;28;20485;-49
2021/08/29 06:11:50;;;;;;;7.70;4.90;;;16.10;88.40;;;;;;5067611;28;20454;-49
2021/08/29 06:14:17;;;;;;;3.43;3.13;;;16.00;88.60;;;;;;5044901;28;20944;-49
2021/08/29 06:16:44;;;;;;;2.93;2.63;;;16.10;88.40;;;;;;5048673;28;20453;-49
2021/08/29 06:19:11;;;;;;;4.30;3.57;;;16.10;88.40;;;;;;5081497;28;20536;-49
2021/08/29 06:21:38;;;;;;;5.00;3.33;;;16.10;88.50;;;;;;5065781;28;20474;-49
2021/08/29 06:24:04;;;;;;;3.90;3.60;;;16.10;88.30;;;;;;5045731;28;20463;-49
2021/08/29 06:26:31;;;;;;;3.63;3.07;;;16.20;87.60;;;;;;5052264;28;20468;-49
2021/08/29 06:28:58;;;;;;;4.50;3.27;;;16.10;87.80;;;;;;5078897;28;21029;-49
2021/08/29 06:31:24;;;;;;;3.60;3.27;;;16.10;87.60;;;;;;5054569;28;21004;-49
2021/08/29 06:33:51;;;;;;;5.10;3.13;;;16.10;87.80;;;;;;5055255;28;20442;-49
2021/08/29 06:36:18;;;;;;;7.57;3.73;;;16.10;87.80;;;;;;5030419;28;21005;-49
2021/08/29 06:38:45;;;;;;;3.13;2.83;;;16.10;88.00;;;;;;5063772;28;20548;-49
2021/08/29 06:41:11;;;;;;;2.90;2.60;;;16.10;88.20;;;;;;5052351;28;20461;-49
2021/08/29 06:43:38;;;;;;;4.83;2.93;;;16.20;87.70;;;;;;5065905;28;20835;-49
2021/08/29 06:46:05;;;;;;;2.47;2.27;;;16.10;87.70;;;;;;5048685;28;20989;-49
2021/08/29 06:48:32;;;;;;;3.50;3.10;;;16.10;87.70;;;;;;5063342;28;20501;-49
2021/08/29 06:50:58;;;;;;;2.83;2.63;;;16.20;87.80;;;;;;5065132;28;20481;-49
2021/08/29 06:53:26;;;;;;;3.17;2.67;;;16.20;87.60;;;;;;5055420;28;20795;-49
2021/08/29 06:55:52;;;;;;;2.80;2.60;;;16.20;87.70;;;;;;5066551;28;20460;-49
2021/08/29 06:58:19;;;;;;;3.90;2.10;;;16.20;87.50;;;;;;5079273;28;20490;-49
2021/08/29 07:00:46;;;;;;;3.10;2.80;;;16.20;87.70;;;;;;5056537;28;20462;-48
2021/08/29 07:03:14;;;;;;;3.47;3.17;;;16.30;87.80;;;;;;5057899;28;20457;-48
2021/08/29 07:05:41;;;;;;;4.17;3.30;;;16.30;87.80;;;;;;5064335;28;20460;-48
2021/08/29 07:08:07;;;;;;;4.63;3.43;;;16.30;87.80;;;;;;5060152;28;20458;-48
2021/08/29 07:10:34;;;;;;;3.60;2.80;;;16.30;87.50;;;;;;5048250;28;20486;-48
2021/08/29 07:13:01;;;;;;;4.30;3.60;;;16.30;87.40;;;;;;5064049;28;20454;-48
2021/08/29 07:15:28;;;;;;;5.30;3.90;;;16.30;87.60;;;;;;5064208;28;20454;-48
2021/08/29 07:17:54;;;;;;;3.80;3.40;;;16.30;87.50;;;;;;5055898;28;20460;-48
2021/08/29 07:20:21;;;;;;;4.27;3.50;;;16.30;87.60;;;;;;5062981;28;20971;-49
2021/08/29 07:22:48;;;;;;;4.30;3.70;;;16.30;88.00;;;;;;5054508;28;20452;-48
2021/08/29 07:25:15;;;;;;;5.37;3.80;;;16.40;87.90;;;;;;5064455;28;20450;-48
2021/08/29 07:27:42;;;;;;;4.97;4.50;;;16.40;88.10;;;;;;5061724;28;20525;-48
2021/08/29 07:30:11;;;;;;;5.83;4.27;;;16.40;88.20;;;;;;5056592;28;20478;-48
2021/08/29 07:32:37;;;;;;;6.27;4.93;;;16.40;88.40;;;;;;5056614;28;20481;-48
2021/08/29 07:35:05;;;;;;;6.40;4.97;;;16.40;88.20;;;;;;5052774;28;21028;-48
2021/08/29 07:37:32;;;;;;;4.37;3.97;;;16.40;88.30;;;;;;5061466;28;20562;-48
2021/08/29 07:39:59;;;;;;;7.07;4.27;;;16.40;88.30;;;;;;5033509;28;20478;-49
2021/08/29 07:42:26;;;;;;;4.43;3.97;;;16.40;88.10;;;;;;5044873;28;20462;-49
2021/08/29 07:44:52;;;;;;;4.63;3.80;;;16.50;87.80;;;;;;5056556;28;20827;-49
2021/08/29 07:47:19;;;;;;;4.33;4.00;;;16.50;87.60;;;;;;5063876;28;20449;-48
2021/08/29 07:49:46;;;;;;;5.17;3.43;;;16.50;87.80;;;;;;5077968;28;20477;-48
2021/08/29 07:52:13;;;;;;;4.50;3.80;;;16.50;87.70;;;;;;5073770;28;20451;-49
2021/08/29 07:54:39;;;;;;;4.83;4.13;;;16.50;87.60;;;;;;5057282;28;20454;-49
2021/08/29 07:57:06;;;;;;;5.07;3.93;;;16.50;86.80;;;;;;5041238;28;20817;-49
2021/08/29 07:59:33;;;;;;;5.33;3.93;;;16.50;87.00;;;;;;5062760;28;20470;-49
2021/08/29 08:01:59;;;;;;;5.47;4.57;;;16.50;87.00;;;;;;5062103;28;20969;-49
2021/08/29 08:04:27;;;;;;;4.63;4.10;;;16.40;87.20;;;;;;5060252;28;20461;-49
2021/08/29 08:06:53;;;;;;;4.40;4.00;;;16.50;87.20;;;;;;5071394;28;20454;-49
2021/08/29 08:09:20;;;;;;;7.10;4.23;;;16.50;86.80;;;;;;5048865;28;20518;-49
2021/08/29 08:11:47;;;;;;;5.53;4.30;;;16.50;86.50;;;;;;5039845;28;20451;-49
2021/08/29 08:14:13;;;;;;;4.20;3.80;;;16.50;86.00;;;;;;5056748;28;20464;-49
2021/08/29 08:16:40;;;;;;;4.90;4.40;;;16.50;86.10;;;;;;5076152;28;20458;-49
2021/08/29 08:19:07;;;;;;;4.50;3.73;;;16.50;86.40;;;;;;5059451;28;20461;-48
2021/08/29 08:21:33;;;;;;;4.60;4.20;;;16.50;86.70;;;;;;5076015;28;20480;-49
2021/08/29 08:24:00;;;;;;;4.67;4.03;;;16.40;87.00;;;;;;5061688;28;20465;-49
2021/08/29 08:26:27;;;;;;;6.03;4.23;;;16.40;87.20;;;;;;5061025;28;20462;-49
2021/08/29 08:28:54;;;;;;;7.23;4.30;;;16.50;87.00;;;;;;5060866;28;20457;-49
2021/08/29 08:31:22;;;;;;;6.00;4.40;;;16.50;87.00;;;;;;5068947;28;20461;-49
2021/08/29 08:33:49;;;;;;;10.77;5.37;;;16.50;87.20;;;;;;5066370;28;20508;-49
2021/08/29 08:36:16;;;;;;;6.00;4.57;;;16.50;87.20;;;;;;5083362;28;20895;-49
2021/08/29 08:38:43;;;;;;;5.60;4.57;;;16.50;87.40;;;;;;5066740;28;20465;-49
2021/08/29 08:41:09;;;;;;;6.63;4.83;;;16.50;87.60;;;;;;5068110;28;20979;-49
2021/08/29 08:43:36;;;;;;;5.23;4.57;;;16.60;87.40;;;;;;5065810;28;20454;-49
2021/08/29 08:46:03;;;;;;;5.80;4.90;;;16.60;87.20;;;;;;5059130;28;20832;-49
2021/08/29 08:48:30;;;;;;;7.43;4.93;;;16.60;86.90;;;;;;5070585;28;20915;-49
2021/08/29 08:50:59;;;;;;;5.90;5.30;;;16.60;86.70;;;;;;5052294;28;21249;-49
2021/08/29 08:53:29;;;;;;;8.20;5.40;;;16.60;86.40;;;;;;5066619;28;20529;-49
2021/08/29 08:56:00;;;;;;;6.37;5.40;;;16.60;86.50;;;;;;5071343;28;20500;-49
2021/08/29 08:58:29;;;;;;;7.90;5.47;;;16.60;86.20;;;;;;5059442;28;20459;-49
2021/08/29 09:00:56;;;;;;;7.70;5.30;;;16.60;86.20;;;;;;5035668;28;20788;-49
2021/08/29 09:03:24;;;;;;;7.27;5.77;;;16.60;86.40;;;;;;5068076;28;20489;-49
2021/08/29 09:05:51;;;;;;;6.87;5.60;;;16.60;86.40;;;;;;5063210;28;20477;-49
2021/08/29 09:08:18;;;;;;;7.37;6.20;;;16.60;86.50;;;;;;5058727;28;20458;-49
2021/08/29 09:10:47;;;;;;;11.33;6.07;;;16.70;86.30;;;;;;5053588;28;20493;-49
2021/08/29 09:13:14;;;;;;;9.77;7.23;;;16.70;86.10;;;;;;5067156;28;20446;-49
2021/08/29 09:15:41;;;;;;;7.73;6.93;;;16.70;86.00;;;;;;5070311;28;20472;-49
2021/08/29 09:18:10;;;;;;;8.93;6.80;;;16.80;86.10;;;;;;5060324;28;20452;-49
2021/08/29 09:20:39;;;;;;;7.17;6.47;;;16.80;86.00;;;;;;5069934;28;20489;-49
2021/08/29 09:23:12;;;;;;;9.37;7.20;;;16.80;86.00;;;;;;5059402;28;20461;-49
2021/08/29 09:25:43;;;;;;;7.70;6.90;;;16.80;85.60;;;;;;5069743;28;20469;-49
2021/08/29 09:28:15;;;;;;;9.73;7.70;;;16.80;85.60;;;;;;5063119;28;20498;-49
2021/08/29 09:30:47;;;;;;;9.80;7.00;;;16.80;85.40;;;;;;5064484;28;20497;-49
2021/08/29 09:33:15;;;;;;;7.33;6.20;;;16.80;85.70;;;;;;5042219;28;20444;-49
2021/08/29 09:35:42;;;;;;;7.80;6.47;;;16.90;85.50;;;;;;5045289;28;20508;-49
2021/08/29 09:38:16;;;;;;;10.83;6.43;;;16.90;85.80;;;;;;5059978;28;20453;-49
2021/08/29 09:40:43;;;;;;;6.80;6.10;;;16.90;85.60;;;;;;5064016;28;20462;-49
2021/08/29 09:43:10;;;;;;;7.20;5.80;;;17.00;85.10;;;;;;5065410;28;20512;-49
2021/08/29 09:45:40;;;;;;;7.50;5.80;;;17.00;85.20;;;;;;5064234;28;20955;-49
2021/08/29 09:48:10;;;;;;;8.70;6.57;;;17.00;85.20;;;;;;5069358;28;20477;-49
2021/08/29 09:50:38;;;;;;;7.07;5.70;;;17.00;85.30;;;;;;5048746;28;20478;-49
2021/08/29 09:53:09;;;;;;;6.57;5.77;;;17.00;85.20;;;;;;5057625;28;20527;-49
2021/08/29 09:55:42;;;;;;;6.17;5.10;;;17.00;84.40;;;;;;5065627;28;20460;-49
2021/08/29 09:58:31;;;;;;;7.07;5.70;;;17.00;84.50;;;;;;5061219;28;20460;-49
2021/08/29 10:01:18;;;;;;;6.13;5.60;;;17.00;84.70;;;;;;5055845;28;20466;-49
2021/08/29 10:03:50;;;;;;;5.93;5.40;;;17.00;84.30;;;;;;5054121;28;20496;-49
2021/08/29 10:06:26;;;;;;;5.83;5.23;;;17.00;84.40;;;;;;5056288;28;20532;-49
2021/08/29 10:08:59;;;;;;;7.10;6.13;;;16.90;84.80;;;;;;5067820;28;20557;-49
2021/08/29 10:11:29;;;;;;;7.87;5.50;;;17.00;84.50;;;;;;5060966;28;20476;-49
2021/08/29 10:14:00;;;;;;;7.20;5.30;;;17.00;84.80;;;;;;5064384;28;20458;-49
2021/08/29 10:16:27;;;;;;;6.20;4.97;;;17.00;84.60;;;;;;5056632;28;20447;-49
2021/08/29 10:18:56;;;;;;;8.37;5.50;;;17.00;84.80;;;;;;5045600;28;20501;-49
2021/08/29 10:21:25;;;;;;;5.87;5.27;;;17.00;84.90;;;;;;5066280;28;20916;-49
2021/08/29 10:23:54;;;;;;;7.30;5.33;;;17.10;84.70;;;;;;5056019;28;20473;-49
2021/08/29 10:26:23;;;;;;;6.77;5.33;;;17.10;84.70;;;;;;5063058;28;20457;-49
2021/08/29 10:29:01;;;;;;;7.57;5.97;;;17.10;85.10;;;;;;5057782;28;20455;-49
2021/08/29 10:31:35;;;;;;;6.53;5.87;;;17.20;84.60;;;;;;5060271;28;20486;-49
2021/08/29 10:34:04;;;;;;;6.43;5.33;;;17.20;84.60;;;;;;5066652;28;20488;-49
2021/08/29 10:36:31;;;;;;;6.60;5.30;;;17.20;84.00;;;;;;5063266;28;20813;-49
2021/08/29 10:38:58;;;;;;;6.67;5.67;;;17.20;83.50;;;;;;5064346;28;20859;-49
2021/08/29 10:41:25;;;;;;;6.60;5.30;;;17.10;83.70;;;;;;5069376;28;20457;-49
2021/08/29 10:43:52;;;;;;;6.97;6.27;;;17.10;84.00;;;;;;5051025;28;20467;-49
2021/08/29 10:46:19;;;;;;;6.47;5.00;;;17.10;84.20;;;;;;5063631;28;20467;-49
2021/08/29 10:48:50;;;;;;;5.83;5.20;;;17.10;84.30;;;;;;5065458;28;20466;-49
2021/08/29 10:51:20;;;;;;;6.37;5.77;;;17.10;84.30;;;;;;5054147;28;20488;-49
2021/08/29 10:53:51;;;;;;;7.47;5.33;;;17.10;84.30;;;;;;5057942;28;20462;-49
2021/08/29 10:56:18;;;;;;;7.37;5.97;;;17.00;84.50;;;;;;5061166;28;20462;-49
2021/08/29 10:59:09;;;;;;;7.70;5.67;;;17.00;84.90;;;;;;5055064;28;20888;-49
2021/08/29 11:01:50;;;;;;;6.90;5.90;;;16.90;85.10;;;;;;5069040;28;20554;-49
2021/08/29 11:04:17;;;;;;;6.50;5.17;;;17.00;85.00;;;;;;5063472;28;20547;-49
2021/08/29 11:06:55;;;;;;;8.00;6.73;;;16.90;85.10;;;;;;5068482;28;20457;-49
2021/08/29 11:09:34;;;;;;;7.50;6.00;;;16.90;85.10;;;;;;5069904;28;20457;-49
2021/08/29 11:12:04;;;;;;;7.50;6.70;;;16.90;85.40;;;;;;5062948;28;20482;-49
2021/08/29 11:14:59;;;;;;;8.33;5.63;;;17.00;85.40;;;;;;5048351;28;20883;-49
2021/08/29 11:17:33;;;;;;;10.70;6.50;;;17.00;85.00;;;;;;5052216;28;20981;-49
2021/08/29 11:20:03;;;;;;;9.80;6.70;;;17.00;84.30;;;;;;5066258;28;20554;-49
2021/08/29 11:22:45;;;;;;;7.30;5.90;;;17.00;84.60;;;;;;5065158;28;20492;-49
2021/08/29 11:25:25;;;;;;;6.77;5.73;;;17.10;84.20;;;;;;5081649;28;20458;-49
2021/08/29 11:27:53;;;;;;;7.10;6.43;;;17.00;83.90;;;;;;5061035;28;20902;-49
2021/08/29 11:30:35;;;;;;;7.90;6.50;;;17.10;83.40;;;;;;5062739;28;20503;-49
2021/08/29 11:33:03;;;;;;;12.13;6.50;;;17.10;83.80;;;;;;5061379;28;20453;-49
2021/08/29 11:35:33;;;;;;;8.07;6.33;;;17.10;84.20;;;;;;5080419;28;20454;-49
2021/08/29 11:38:31;;;;;;;5.80;4.97;;;17.10;84.60;;;;;;5054928;28;20505;-49
2021/08/29 11:41:14;;;;;;;5.70;5.10;;;17.20;83.80;;;;;;5038046;28;20470;-49
2021/08/29 11:43:44;;;;;;;6.57;5.97;;;17.20;83.30;;;;;;5070052;28;20514;-49
2021/08/29 11:46:17;;;;;;;6.70;5.13;;;17.20;83.70;;;;;;5043562;28;20934;-49
2021/08/29 11:48:56;;;;;;;5.30;4.73;;;17.20;83.90;;;;;;5061395;28;21034;-49
2021/08/29 11:51:25;;;;;;;6.83;5.07;;;17.20;83.80;;;;;;5051170;28;21013;-49
2021/08/29 11:53:52;;;;;;;7.30;5.40;;;17.20;83.20;;;;;;5061519;28;20459;-49
2021/08/29 11:56:22;;;;;;;5.37;4.83;;;17.20;83.20;;;;;;5052888;28;20465;-49
2021/08/29 11:58:49;;;;;;;5.20;4.70;;;17.20;83.40;;;;;;5042038;28;20464;-49
2021/08/29 12:01:16;;;;;;;5.00;4.30;;;17.30;83.40;;;;;;5033041;28;20473;-49
2021/08/29 12:03:44;;;;;;;11.53;5.27;;;17.30;83.70;;;;;;5055802;28;20472;-49
2021/08/29 12:06:16;;;;;;;4.93;4.43;;;17.30;83.60;;;;;;5055716;28;20488;-49
2021/08/29 12:09:06;;;;;;;5.17;4.40;;;17.40;83.30;;;;;;5064584;28;21025;-49
2021/08/29 12:11:36;;;;;;;4.93;4.43;;;17.40;83.20;;;;;;5065342;28;20486;-49
2021/08/29 12:14:29;;;;;;;4.57;3.80;;;17.50;82.80;;;;;;5067725;28;20449;-49
2021/08/29 12:16:59;;;;;;;5.80;4.37;;;17.50;82.40;;;;;;5045716;28;20532;-49
2021/08/29 12:19:35;;;;;;;4.60;3.87;;;17.40;82.30;;;;;;5054084;28;20550;-49
2021/08/29 12:22:06;;;;;;;6.07;4.60;;;17.40;82.40;;;;;;5054668;28;20578;-49
2021/08/29 12:24:38;;;;;;;6.30;5.13;;;17.40;82.70;;;;;;5054532;28;20986;-49
2021/08/29 12:27:13;;;;;;;6.00;5.30;;;17.40;82.70;;;;;;5068471;28;20457;-49
2021/08/29 12:29:53;;;;;;;7.70;7.03;;;17.40;82.80;;;;;;5054038;28;20441;-49
2021/08/29 12:32:31;;;;;;;8.10;5.20;;;17.40;83.10;;;;;;5053003;28;20453;-49
2021/08/29 12:35:03;;;;;;;7.47;5.33;;;17.40;83.60;;;;;;5057865;28;20884;-49
2021/08/29 12:37:32;;;;;;;6.63;5.00;;;17.40;84.10;;;;;;5058271;28;20994;-49
2021/08/29 12:40:00;;;;;;;6.43;5.83;;;17.40;83.90;;;;;;5064782;28;20960;-49
2021/08/29 12:42:34;;;;;;;7.00;6.30;;;17.40;83.70;;;;;;5065262;28;20505;-49
2021/08/29 12:45:05;;;;;;;6.87;5.97;;;17.40;83.70;;;;;;5067567;28;20458;-49
2021/08/29 12:47:32;;;;;;;9.73;5.67;;;17.40;83.90;;;;;;5062723;28;20452;-49
2021/08/29 12:50:04;;;;;;;6.50;5.90;;;17.40;84.30;;;;;;5068274;28;20437;-49
2021/08/29 12:52:39;;;;;;;6.40;5.53;;;17.40;84.20;;;;;;5064182;28;20806;-49
2021/08/29 12:55:14;;;;;;;5.67;5.00;;;17.40;84.40;;;;;;5060275;28;20524;-49
2021/08/29 12:57:43;;;;;;;9.43;5.80;;;17.40;84.70;;;;;;5068634;28;21054;-49